sensor_id;sensor_type;location;lat;lon;timestamp;pressure;altitude;pressure_sealevel;temperature;humidity
5284;BME280;15377;48.540;9.268;2024-02-04T00:01:29;98629.88;;;8.12;100.00
5284;BME280;15377;48.540;9.268;2024-02-04T00:03:55;98621.22;;;8.14;100.00
5284;BME280;15377;48.540;9.268;2024-02-04T00:06:20;98636.88;;;8.13;100.00
5284;BME280;15377;48.540;9.268;2024-02-04T00:08:46;98622.84;;;8.11;100.00
5284;BME280;15377;48.540;9.268;2024-02-04T00:11:11;98633.13;;;8.07;100.00
5284;BME280;15377;48.540;9.268;2024-02-04T00:13:38;98635.28;;;8.16;100.00
5284;BME280;15377;48.540;9.268;2024-02-04T00:16:03;98635.28;;;8.16;100.00
5284;BME280;15377;48.540;9.268;2024-02-04T00:18:28;98627.38;;;8.18;100.00
5284;BME280;15377;48.540;9.268;2024-02-04T00:20:54;98633.66;;;8.18;100.00
5284;BME280;15377;48.540;9.268;2024-02-04T00:23:19;98629.72;;;8.19;100.00
5284;BME280;15377;48.540;9.268;2024-02-04T00:25:44;98622.28;;;8.20;100.00
5284;BME280;15377;48.540;9.268;2024-02-04T00:28:10;98610.94;;;8.18;100.00
5284;BME280;15377;48.540;9.268;2024-02-04T00:30:38;98603.03;;;8.23;100.00
5284;BME280;15377;48.540;9.268;2024-02-04T00:33:04;98600.63;;;8.25;100.00
5284;BME280;15377;48.540;9.268;2024-02-04T00:35:30;98599.50;;;8.23;100.00
5284;BME280;15377;48.540;9.268;2024-02-04T00:37:55;98584.28;;;8.18;100.00
5284;BME280;15377;48.540;9.268;2024-02-04T00:40:21;98586.56;;;8.23;100.00
5284;BME280;15377;48.540;9.268;2024-02-04T00:42:46;98572.94;;;8.20;100.00
5284;BME280;15377;48.540;9.268;2024-02-04T00:45:12;98569.75;;;8.21;100.00
5284;BME280;15377;48.540;9.268;2024-02-04T00:47:37;98572.66;;;8.14;100.00
5284;BME280;15377;48.540;9.268;2024-02-04T00:50:03;98582.28;;;8.22;100.00
5284;BME280;15377;48.540;9.268;2024-02-04T00:52:28;98572.50;;;8.21;100.00
5284;BME280;15377;48.540;9.268;2024-02-04T00:54:54;98564.75;;;8.16;100.00
5284;BME280;15377;48.540;9.268;2024-02-04T00:57:19;98540.50;;;8.15;100.00
5284;BME280;15377;48.540;9.268;2024-02-04T00:59:45;98538.38;;;8.06;100.00
5284;BME280;15377;48.540;9.268;2024-02-04T01:02:10;98548.31;;;8.00;100.00
5284;BME280;15377;48.540;9.268;2024-02-04T01:04:35;98551.19;;;7.93;100.00
5284;BME280;15377;48.540;9.268;2024-02-04T01:07:01;98553.75;;;7.84;100.00
5284;BME280;15377;48.540;9.268;2024-02-04T01:09:30;98549.56;;;7.80;100.00
5284;BME280;15377;48.540;9.268;2024-02-04T01:11:55;98557.78;;;7.80;100.00
5284;BME280;15377;48.540;9.268;2024-02-04T01:14:20;98561.78;;;7.75;100.00
5284;BME280;15377;48.540;9.268;2024-02-04T01:16:46;98565.03;;;7.70;100.00
5284;BME280;15377;48.540;9.268;2024-02-04T01:19:11;98566.91;;;7.73;100.00
5284;BME280;15377;48.540;9.268;2024-02-04T01:21:36;98567.66;;;7.58;100.00
5284;BME280;15377;48.540;9.268;2024-02-04T01:24:02;98564.50;;;7.59;100.00
5284;BME280;15377;48.540;9.268;2024-02-04T01:26:27;98562.09;;;7.61;100.00
5284;BME280;15377;48.540;9.268;2024-02-04T01:28:53;98573.06;;;7.61;100.00
5284;BME280;15377;48.540;9.268;2024-02-04T01:31:18;98555.75;;;7.64;100.00
5284;BME280;15377;48.540;9.268;2024-02-04T01:33:43;98556.31;;;7.75;100.00
5284;BME280;15377;48.540;9.268;2024-02-04T01:36:09;98536.78;;;7.73;100.00
5284;BME280;15377;48.540;9.268;2024-02-04T01:38:34;98536.09;;;7.69;100.00
5284;BME280;15377;48.540;9.268;2024-02-04T01:40:59;98541.56;;;7.69;100.00
5284;BME280;15377;48.540;9.268;2024-02-04T01:43:36;98547.19;;;7.62;100.00
5284;BME280;15377;48.540;9.268;2024-02-04T01:46:02;98541.78;;;7.59;100.00
5284;BME280;15377;48.540;9.268;2024-02-04T01:48:27;98533.66;;;7.55;100.00
5284;BME280;15377;48.540;9.268;2024-02-04T01:50:54;98522.34;;;7.53;100.00
5284;BME280;15377;48.540;9.268;2024-02-04T01:53:22;98514.47;;;7.55;100.00
5284;BME280;15377;48.540;9.268;2024-02-04T01:55:48;98505.41;;;7.58;100.00
5284;BME280;15377;48.540;9.268;2024-02-04T01:58:15;98519.97;;;7.55;100.00
5284;BME280;15377;48.540;9.268;2024-02-04T02:00:40;98536.41;;;7.55;100.00
5284;BME280;15377;48.540;9.268;2024-02-04T02:03:06;98537.84;;;7.60;100.00
5284;BME280;15377;48.540;9.268;2024-02-04T02:05:34;98540.19;;;7.61;100.00
5284;BME280;15377;48.540;9.268;2024-02-04T02:08:00;98543.25;;;7.63;100.00
5284;BME280;15377;48.540;9.268;2024-02-04T02:10:25;98552.69;;;7.62;100.00
5284;BME280;15377;48.540;9.268;2024-02-04T02:12:56;98564.31;;;7.66;100.00
5284;BME280;15377;48.540;9.268;2024-02-04T02:15:27;98552.69;;;7.62;100.00
5284;BME280;15377;48.540;9.268;2024-02-04T02:18:03;98568.19;;;7.69;100.00
5284;BME280;15377;48.540;9.268;2024-02-04T02:23:08;98559.53;;;7.70;100.00
5284;BME280;15377;48.540;9.268;2024-02-04T02:25:36;98562.63;;;7.72;100.00
5284;BME280;15377;48.540;9.268;2024-02-04T02:28:03;98542.41;;;7.66;100.00
5284;BME280;15377;48.540;9.268;2024-02-04T02:30:28;98568.09;;;7.72;100.00
5284;BME280;15377;48.540;9.268;2024-02-04T02:32:54;98564.69;;;7.68;100.00
5284;BME280;15377;48.540;9.268;2024-02-04T02:35:20;98553.22;;;7.73;100.00
5284;BME280;15377;48.540;9.268;2024-02-04T02:42:55;98545.06;;;7.70;100.00
5284;BME280;15377;48.540;9.268;2024-02-04T02:45:21;98539.59;;;7.70;100.00
5284;BME280;15377;48.540;9.268;2024-02-04T02:47:49;98541.56;;;7.69;100.00
5284;BME280;15377;48.540;9.268;2024-02-04T02:50:15;98536.09;;;7.69;100.00
5284;BME280;15377;48.540;9.268;2024-02-04T02:52:41;98545.50;;;7.68;100.00
5284;BME280;15377;48.540;9.268;2024-02-04T02:55:06;98546.34;;;7.65;100.00
5284;BME280;15377;48.540;9.268;2024-02-04T02:57:32;98554.94;;;7.67;100.00
5284;BME280;15377;48.540;9.268;2024-02-04T02:59:57;98554.94;;;7.67;100.00
5284;BME280;15377;48.540;9.268;2024-02-04T03:02:22;98563.50;;;7.69;100.00
5284;BME280;15377;48.540;9.268;2024-02-04T03:04:48;98566.91;;;7.73;100.00
5284;BME280;15377;48.540;9.268;2024-02-04T03:07:13;98552.44;;;7.73;100.00
5284;BME280;15377;48.540;9.268;2024-02-04T03:09:38;98549.72;;;7.73;100.00
5284;BME280;15377;48.540;9.268;2024-02-04T03:12:04;98564.53;;;7.75;100.00
5284;BME280;15377;48.540;9.268;2024-02-04T03:14:30;98564.94;;;7.74;100.00
5284;BME280;15377;48.540;9.268;2024-02-04T03:16:56;98568.81;;;7.76;100.00
5284;BME280;15377;48.540;9.268;2024-02-04T03:19:21;98572.75;;;7.75;100.00
5284;BME280;15377;48.540;9.268;2024-02-04T03:21:47;98566.50;;;7.75;100.00
5284;BME280;15377;48.540;9.268;2024-02-04T03:24:13;98569.16;;;7.78;100.00
5284;BME280;15377;48.540;9.268;2024-02-04T03:26:38;98568.81;;;7.76;100.00
5284;BME280;15377;48.540;9.268;2024-02-04T03:29:03;98568.44;;;7.74;100.00
5284;BME280;15377;48.540;9.268;2024-02-04T03:31:30;98565.63;;;7.78;100.00
5284;BME280;15377;48.540;9.268;2024-02-04T03:33:56;98567.69;;;7.74;100.00
5284;BME280;15377;48.540;9.268;2024-02-04T03:36:23;98569.50;;;7.80;100.00
5284;BME280;15377;48.540;9.268;2024-02-04T03:38:49;98574.22;;;7.80;100.00
5284;BME280;15377;48.540;9.268;2024-02-04T03:41:15;98581.66;;;7.79;100.00
5284;BME280;15377;48.540;9.268;2024-02-04T03:43:40;98581.66;;;7.79;100.00
5284;BME280;15377;48.540;9.268;2024-02-04T03:46:05;98578.16;;;7.79;100.00
5284;BME280;15377;48.540;9.268;2024-02-04T03:48:31;98559.72;;;7.79;100.00
5284;BME280;15377;48.540;9.268;2024-02-04T03:50:56;98559.41;;;7.77;100.00
5284;BME280;15377;48.540;9.268;2024-02-04T03:53:21;98561.28;;;7.80;100.00
5284;BME280;15377;48.540;9.268;2024-02-04T03:55:48;98557.69;;;7.83;100.00
5284;BME280;15377;48.540;9.268;2024-02-04T03:58:14;98546.75;;;7.83;100.00
5284;BME280;15377;48.540;9.268;2024-02-04T04:00:39;98535.78;;;7.83;100.00
5284;BME280;15377;48.540;9.268;2024-02-04T04:03:05;98522.56;;;7.78;100.00
5284;BME280;15377;48.540;9.268;2024-02-04T04:05:30;98524.38;;;7.85;100.00
5284;BME280;15377;48.540;9.268;2024-02-04T04:07:56;98513.84;;;7.83;100.00
5284;BME280;15377;48.540;9.268;2024-02-04T04:10:21;98509.66;;;7.79;100.00
5284;BME280;15377;48.540;9.268;2024-02-04T04:12:46;98506.91;;;7.79;100.00
5284;BME280;15377;48.540;9.268;2024-02-04T04:15:12;98509.28;;;7.77;100.00
5284;BME280;15377;48.540;9.268;2024-02-04T04:17:37;98505.00;;;7.76;100.00
5284;BME280;15377;48.540;9.268;2024-02-04T04:20:05;98514.09;;;7.73;100.00
5284;BME280;15377;48.540;9.268;2024-02-04T04:22:31;98522.66;;;7.75;100.00
5284;BME280;15377;48.540;9.268;2024-02-04T04:24:56;98521.03;;;7.77;100.00
5284;BME280;15377;48.540;9.268;2024-02-04T04:27:21;98527.28;;;7.78;100.00
5284;BME280;15377;48.540;9.268;2024-02-04T04:29:47;98524.13;;;7.79;100.00
5284;BME280;15377;48.540;9.268;2024-02-04T04:32:12;98523.44;;;7.75;100.00
5284;BME280;15377;48.540;9.268;2024-02-04T04:34:37;98534.41;;;7.75;100.00
5284;BME280;15377;48.540;9.268;2024-02-04T04:37:03;98538.31;;;7.74;100.00
5284;BME280;15377;48.540;9.268;2024-02-04T04:39:28;98529.75;;;7.72;100.00
5284;BME280;15377;48.540;9.268;2024-02-04T04:41:53;98530.53;;;7.73;100.00
5284;BME280;15377;48.540;9.268;2024-02-04T04:44:19;98518.53;;;7.67;100.00
5284;BME280;15377;48.540;9.268;2024-02-04T04:46:44;98522.13;;;7.64;100.00
5284;BME280;15377;48.540;9.268;2024-02-04T04:49:09;98508.94;;;7.59;100.00
5284;BME280;15377;48.540;9.268;2024-02-04T04:51:35;98497.00;;;7.49;100.00
5284;BME280;15377;48.540;9.268;2024-02-04T04:54:00;98509.16;;;7.48;100.00
5284;BME280;15377;48.540;9.268;2024-02-04T04:56:26;98520.88;;;7.49;100.00
5284;BME280;15377;48.540;9.268;2024-02-04T04:58:51;98535.78;;;7.48;100.00
5284;BME280;15377;48.540;9.268;2024-02-04T05:01:16;98517.19;;;7.39;100.00
5284;BME280;15377;48.540;9.268;2024-02-04T05:03:42;98542.00;;;7.48;100.00
5284;BME280;15377;48.540;9.268;2024-02-04T05:06:08;98534.31;;;7.43;100.00
5284;BME280;15377;48.540;9.268;2024-02-04T05:08:33;98539.09;;;7.39;100.00
5284;BME280;15377;48.540;9.268;2024-02-04T05:10:58;98549.91;;;7.46;100.00
5284;BME280;15377;48.540;9.268;2024-02-04T05:13:24;98554.66;;;7.42;100.00
5284;BME280;15377;48.540;9.268;2024-02-04T05:15:49;98550.03;;;7.39;100.00
5284;BME280;15377;48.540;9.268;2024-02-04T05:18:14;98560.84;;;7.46;100.00
5284;BME280;15377;48.540;9.268;2024-02-04T05:20:40;98560.06;;;7.46;100.00
5284;BME280;15377;48.540;9.268;2024-02-04T05:23:05;98560.50;;;7.44;100.00
5284;BME280;15377;48.540;9.268;2024-02-04T05:25:31;98562.03;;;7.45;100.00
5284;BME280;15377;48.540;9.268;2024-02-04T05:27:56;98556.38;;;7.36;100.00
5284;BME280;15377;48.540;9.268;2024-02-04T05:30:22;98568.72;;;7.44;100.00
5284;BME280;15377;48.540;9.268;2024-02-04T05:32:47;98573.34;;;7.47;100.00
5284;BME280;15377;48.540;9.268;2024-02-04T05:35:13;98569.41;;;7.48;100.00
5284;BME280;15377;48.540;9.268;2024-02-04T05:37:38;98574.06;;;7.51;100.00
5284;BME280;15377;48.540;9.268;2024-02-04T05:40:04;98586.03;;;7.57;100.00
5284;BME280;15377;48.540;9.268;2024-02-04T05:42:30;98588.44;;;7.55;100.00
5284;BME280;15377;48.540;9.268;2024-02-04T05:44:57;98589.97;;;7.56;100.00
5284;BME280;15377;48.540;9.268;2024-02-04T05:47:22;98582.09;;;7.58;100.00
5284;BME280;15377;48.540;9.268;2024-02-04T05:49:48;98567.88;;;7.47;100.00
5284;BME280;15377;48.540;9.268;2024-02-04T05:52:14;98571.16;;;7.58;100.00
5284;BME280;15377;48.540;9.268;2024-02-04T05:54:39;98580.06;;;7.62;100.00
5284;BME280;15377;48.540;9.268;2024-02-04T05:57:05;98581.63;;;7.63;100.00
5284;BME280;15377;48.540;9.268;2024-02-04T05:59:31;98580.81;;;7.63;100.00
5284;BME280;15377;48.540;9.268;2024-02-04T06:01:56;98574.59;;;7.62;100.00
5284;BME280;15377;48.540;9.268;2024-02-04T06:04:22;98584.34;;;7.63;100.00
5284;BME280;15377;48.540;9.268;2024-02-04T06:06:47;98581.75;;;7.56;100.00
5284;BME280;15377;48.540;9.268;2024-02-04T06:09:13;98586.47;;;7.56;100.00
5284;BME280;15377;48.540;9.268;2024-02-04T06:11:39;98586.75;;;7.61;100.00
5284;BME280;15377;48.540;9.268;2024-02-04T06:14:04;98599.59;;;7.64;100.00
5284;BME280;15377;48.540;9.268;2024-02-04T06:16:30;98591.72;;;7.66;100.00
5284;BME280;15377;48.540;9.268;2024-02-04T06:18:55;98582.63;;;7.53;100.00
5284;BME280;15377;48.540;9.268;2024-02-04T06:21:22;98582.03;;;7.62;100.00
5284;BME280;15377;48.540;9.268;2024-02-04T06:23:47;98567.72;;;7.54;100.00
5284;BME280;15377;48.540;9.268;2024-02-04T06:26:13;98570.31;;;7.61;100.00
5284;BME280;15377;48.540;9.268;2024-02-04T06:28:38;98566.72;;;7.64;100.00
5284;BME280;15377;48.540;9.268;2024-02-04T06:31:04;98581.28;;;7.61;100.00
5284;BME280;15377;48.540;9.268;2024-02-04T06:33:29;98580.06;;;7.62;100.00
5284;BME280;15377;48.540;9.268;2024-02-04T06:35:54;98591.38;;;7.64;100.00
5284;BME280;15377;48.540;9.268;2024-02-04T06:38:20;98583.09;;;7.68;100.00
5284;BME280;15377;48.540;9.268;2024-02-04T06:40:45;98590.53;;;7.67;100.00
5284;BME280;15377;48.540;9.268;2024-02-04T06:43:10;98573.06;;;7.61;100.00
5284;BME280;15377;48.540;9.268;2024-02-04T06:45:36;98590.88;;;7.69;100.00
5284;BME280;15377;48.540;9.268;2024-02-04T06:48:01;98601.84;;;7.69;100.00
5284;BME280;15377;48.540;9.268;2024-02-04T06:50:28;98577.00;;;7.60;100.00
5284;BME280;15377;48.540;9.268;2024-02-04T06:52:53;98594.03;;;7.68;100.00
5284;BME280;15377;48.540;9.268;2024-02-04T06:55:18;98590.97;;;7.66;100.00
5284;BME280;15377;48.540;9.268;2024-02-04T06:57:44;98602.75;;;7.63;100.00
5284;BME280;15377;48.540;9.268;2024-02-04T07:00:09;98612.03;;;7.69;100.00
5284;BME280;15377;48.540;9.268;2024-02-04T07:02:36;98608.53;;;7.68;100.00
5284;BME280;15377;48.540;9.268;2024-02-04T07:05:02;98601.50;;;7.67;100.00
5284;BME280;15377;48.540;9.268;2024-02-04T07:07:27;98609.72;;;7.67;100.00
5284;BME280;15377;48.540;9.268;2024-02-04T07:09:53;98610.41;;;7.71;100.00
5284;BME280;15377;48.540;9.268;2024-02-04T07:12:18;98611.13;;;7.75;100.00
5284;BME280;15377;48.540;9.268;2024-02-04T07:14:44;98620.50;;;7.74;100.00
5284;BME280;15377;48.540;9.268;2024-02-04T07:17:09;98619.69;;;7.77;100.00
5284;BME280;15377;48.540;9.268;2024-02-04T07:19:36;98611.78;;;7.79;100.00
5284;BME280;15377;48.540;9.268;2024-02-04T07:22:02;98602.38;;;7.80;100.00
5284;BME280;15377;48.540;9.268;2024-02-04T07:24:27;98583.16;;;7.64;100.00
5284;BME280;15377;48.540;9.268;2024-02-04T07:26:52;98594.50;;;7.82;100.00
5284;BME280;15377;48.540;9.268;2024-02-04T07:29:18;98585.09;;;7.83;100.00
5284;BME280;15377;48.540;9.268;2024-02-04T07:31:44;98594.34;;;7.89;100.00
5284;BME280;15377;48.540;9.268;2024-02-04T07:34:09;98581.78;;;7.92;100.00
5284;BME280;15377;48.540;9.268;2024-02-04T07:36:34;98586.31;;;7.98;100.00
5284;BME280;15377;48.540;9.268;2024-02-04T07:39:00;98572.09;;;8.03;100.00
5284;BME280;15377;48.540;9.268;2024-02-04T07:41:27;98564.31;;;8.02;100.00
5284;BME280;15377;48.540;9.268;2024-02-04T07:43:52;98575.41;;;8.14;100.00
5284;BME280;15377;48.540;9.268;2024-02-04T07:46:18;98573.81;;;8.13;100.00
5284;BME280;15377;48.540;9.268;2024-02-04T07:48:43;98585.78;;;8.23;100.00
5284;BME280;15377;48.540;9.268;2024-02-04T07:51:08;98579.53;;;8.22;100.00
5284;BME280;15377;48.540;9.268;2024-02-04T07:53:34;98578.69;;;8.25;100.00
5284;BME280;15377;48.540;9.268;2024-02-04T07:56:01;98588.78;;;8.28;100.00
5284;BME280;15377;48.540;9.268;2024-02-04T07:58:28;98593.69;;;8.37;100.00
5284;BME280;15377;48.540;9.268;2024-02-04T08:00:54;98601.28;;;8.29;100.00
5284;BME280;15377;48.540;9.268;2024-02-04T08:03:19;98602.00;;;8.33;100.00
5284;BME280;15377;48.540;9.268;2024-02-04T08:05:44;98592.91;;;8.36;100.00
5284;BME280;15377;48.540;9.268;2024-02-04T08:08:10;98589.47;;;8.32;100.00
5284;BME280;15377;48.540;9.268;2024-02-04T08:10:35;98590.94;;;8.37;100.00
5284;BME280;15377;48.540;9.268;2024-02-04T08:13:01;98582.97;;;8.42;100.00
5284;BME280;15377;48.540;9.268;2024-02-04T08:15:26;98582.72;;;8.53;100.00
5284;BME280;15377;48.540;9.268;2024-02-04T08:17:51;98562.22;;;8.57;100.00
5284;BME280;15377;48.540;9.268;2024-02-04T08:20:18;98562.38;;;8.50;100.00
5284;BME280;15377;48.540;9.268;2024-02-04T08:22:43;98551.41;;;8.50;100.00
5284;BME280;15377;48.540;9.268;2024-02-04T08:25:09;98543.25;;;8.63;100.00
5284;BME280;15377;48.540;9.268;2024-02-04T08:27:37;98548.38;;;8.77;100.00
5284;BME280;15377;48.540;9.268;2024-02-04T08:30:02;98556.00;;;8.85;100.00
5284;BME280;15377;48.540;9.268;2024-02-04T08:32:28;98561.50;;;8.85;100.00
5284;BME280;15377;48.540;9.268;2024-02-04T08:34:53;98562.25;;;8.86;100.00
5284;BME280;15377;48.540;9.268;2024-02-04T08:37:19;98561.38;;;8.89;100.00
5284;BME280;15377;48.540;9.268;2024-02-04T08:39:45;98556.16;;;8.94;100.00
5284;BME280;15377;48.540;9.268;2024-02-04T08:42:10;98552.34;;;9.04;100.00
5284;BME280;15377;48.540;9.268;2024-02-04T08:44:36;98543.03;;;9.14;100.00
5284;BME280;15377;48.540;9.268;2024-02-04T08:47:01;98539.44;;;9.17;100.00
5284;BME280;15377;48.540;9.268;2024-02-04T08:49:29;98532.06;;;9.14;100.00
5284;BME280;15377;48.540;9.268;2024-02-04T08:51:54;98550.56;;;9.26;100.00
5284;BME280;15377;48.540;9.268;2024-02-04T08:54:19;98550.88;;;9.28;100.00
5284;BME280;15377;48.540;9.268;2024-02-04T08:56:48;98551.22;;;9.30;100.00
5284;BME280;15377;48.540;9.268;2024-02-04T08:59:13;98562.44;;;9.36;100.00
5284;BME280;15377;48.540;9.268;2024-02-04T09:01:38;98552.03;;;9.43;100.00
5284;BME280;15377;48.540;9.268;2024-02-04T09:04:04;98551.13;;;9.34;100.00
5284;BME280;15377;48.540;9.268;2024-02-04T09:06:29;98565.56;;;9.50;100.00
5284;BME280;15377;48.540;9.268;2024-02-04T09:08:55;98571.19;;;9.59;100.00
5284;BME280;15377;48.540;9.268;2024-02-04T09:11:20;98567.22;;;9.60;100.00
5284;BME280;15377;48.540;9.268;2024-02-04T09:13:46;98557.97;;;9.54;100.00
5284;BME280;15377;48.540;9.268;2024-02-04T09:16:12;98562.03;;;9.50;100.00
5284;BME280;15377;48.540;9.268;2024-02-04T09:18:37;98572.94;;;9.53;100.00
5284;BME280;15377;48.540;9.268;2024-02-04T09:21:03;98582.38;;;9.52;100.00
5284;BME280;15377;48.540;9.268;2024-02-04T09:23:28;98576.75;;;9.43;100.00
5284;BME280;15377;48.540;9.268;2024-02-04T09:25:53;98573.22;;;9.43;100.00
5284;BME280;15377;48.540;9.268;2024-02-04T09:28:19;98571.59;;;9.45;100.00
5284;BME280;15377;48.540;9.268;2024-02-04T09:30:45;98561.81;;;9.44;100.00
5284;BME280;15377;48.540;9.268;2024-02-04T09:33:11;98570.88;;;9.57;100.00
5284;BME280;15377;48.540;9.268;2024-02-04T09:35:37;98571.63;;;9.70;100.00
5284;BME280;15377;48.540;9.268;2024-02-04T09:38:02;98557.47;;;9.72;100.00
5284;BME280;15377;48.540;9.268;2024-02-04T09:40:27;98576.41;;;9.95;100.00
5284;BME280;15377;48.540;9.268;2024-02-04T09:42:53;98581.03;;;10.10;100.00
5284;BME280;15377;48.540;9.268;2024-02-04T09:45:19;98572.47;;;10.21;100.00
5284;BME280;15377;48.540;9.268;2024-02-04T09:47:45;98566.41;;;10.38;100.00
5284;BME280;15377;48.540;9.268;2024-02-04T09:50:11;98561.22;;;10.53;100.00
5284;BME280;15377;48.540;9.268;2024-02-04T09:52:39;98570.09;;;10.69;100.00
5284;BME280;15377;48.540;9.268;2024-02-04T09:55:07;98571.63;;;11.04;100.00
5284;BME280;15377;48.540;9.268;2024-02-04T09:57:35;98571.09;;;12.04;100.00
5284;BME280;15377;48.540;9.268;2024-02-04T10:00:03;98577.16;;;12.20;100.00
5284;BME280;15377;48.540;9.268;2024-02-04T10:02:33;98581.97;;;11.55;100.00
5284;BME280;15377;48.540;9.268;2024-02-04T10:04:59;98578.25;;;11.06;100.00
5284;BME280;15377;48.540;9.268;2024-02-04T10:07:24;98573.59;;;10.82;100.00
5284;BME280;15377;48.540;9.268;2024-02-04T10:09:50;98551.63;;;10.57;100.00
5284;BME280;15377;48.540;9.268;2024-02-04T10:12:16;98557.00;;;10.61;100.00
5284;BME280;15377;48.540;9.268;2024-02-04T10:14:42;98551.22;;;10.46;100.00
5284;BME280;15377;48.540;9.268;2024-02-04T10:17:08;98565.97;;;10.52;100.00
5284;BME280;15377;48.540;9.268;2024-02-04T10:19:33;98563.13;;;10.43;100.00
5284;BME280;15377;48.540;9.268;2024-02-04T10:22:00;98549.66;;;10.45;100.00
5284;BME280;15377;48.540;9.268;2024-02-04T10:24:25;98547.25;;;10.47;100.00
5284;BME280;15377;48.540;9.268;2024-02-04T10:26:50;98539.31;;;10.49;100.00
5284;BME280;15377;48.540;9.268;2024-02-04T10:29:18;98531.63;;;10.44;100.00
5284;BME280;15377;48.540;9.268;2024-02-04T10:31:43;98535.22;;;10.54;100.00
5284;BME280;15377;48.540;9.268;2024-02-04T10:34:08;98531.00;;;10.62;100.00
5284;BME280;15377;48.540;9.268;2024-02-04T10:36:34;98532.47;;;10.66;100.00
5284;BME280;15377;48.540;9.268;2024-02-04T10:38:59;98522.19;;;10.67;100.00
5284;BME280;15377;48.540;9.268;2024-02-04T10:41:25;98534.78;;;10.89;100.00
5284;BME280;15377;48.540;9.268;2024-02-04T10:43:52;98529.31;;;11.10;100.00
5284;BME280;15377;48.540;9.268;2024-02-04T10:46:19;98506.44;;;11.22;100.00
5284;BME280;15377;48.540;9.268;2024-02-04T10:48:51;98515.38;;;11.57;100.00
5284;BME280;15377;48.540;9.268;2024-02-04T10:51:17;98505.84;;;11.49;100.00
5284;BME280;15377;48.540;9.268;2024-02-04T10:53:46;98482.63;;;11.59;100.00
5284;BME280;15377;48.540;9.268;2024-02-04T10:56:20;98477.16;;;11.68;100.00
5284;BME280;15377;48.540;9.268;2024-02-04T10:58:47;98460.00;;;11.64;100.00
5284;BME280;15377;48.540;9.268;2024-02-04T11:01:14;98454.53;;;11.82;100.00
5284;BME280;15377;48.540;9.268;2024-02-04T11:03:40;98460.06;;;11.82;100.00
5284;BME280;15377;48.540;9.268;2024-02-04T11:06:07;98469.84;;;11.83;100.00
5284;BME280;15377;48.540;9.268;2024-02-04T11:08:33;98460.06;;;11.51;100.00
5284;BME280;15377;48.540;9.268;2024-02-04T11:10:59;98445.31;;;11.45;100.00
5284;BME280;15377;48.540;9.268;2024-02-04T11:13:26;98457.41;;;11.39;100.00
5284;BME280;15377;48.540;9.268;2024-02-04T11:15:53;98459.50;;;10.83;100.00
5284;BME280;15377;48.540;9.268;2024-02-04T11:21:33;98465.06;;;10.71;100.00
5284;BME280;15377;48.540;9.268;2024-02-04T11:27:11;98480.09;;;11.00;100.00
5284;BME280;15377;48.540;9.268;2024-02-04T11:29:37;98492.66;;;11.22;100.00
5284;BME280;15377;48.540;9.268;2024-02-04T11:32:03;98488.03;;;11.41;100.00
5284;BME280;15377;48.540;9.268;2024-02-04T11:34:29;98491.00;;;11.77;100.00
5284;BME280;15377;48.540;9.268;2024-02-04T11:36:54;98489.97;;;11.92;100.00
5284;BME280;15377;48.540;9.268;2024-02-04T11:39:19;98481.16;;;12.06;100.00
5284;BME280;15377;48.540;9.268;2024-02-04T11:41:49;98489.63;;;12.39;100.00
5284;BME280;15377;48.540;9.268;2024-02-04T11:44:24;98486.31;;;12.71;100.00
5284;BME280;15377;48.540;9.268;2024-02-04T11:46:50;98461.00;;;12.81;100.00
5284;BME280;15377;48.540;9.268;2024-02-04T11:49:16;98456.53;;;12.93;100.00
5284;BME280;15377;48.540;9.268;2024-02-04T11:51:50;98441.22;;;12.74;100.00
5284;BME280;15377;48.540;9.268;2024-02-04T11:54:16;98445.06;;;12.67;100.00
5284;BME280;15377;48.540;9.268;2024-02-04T11:56:45;98442.13;;;12.62;100.00
5284;BME280;15377;48.540;9.268;2024-02-04T11:59:11;98435.06;;;12.43;100.00
5284;BME280;15377;48.540;9.268;2024-02-04T12:01:39;98433.19;;;12.31;100.00
5284;BME280;15377;48.540;9.268;2024-02-04T12:04:16;98428.75;;;12.42;100.00
5284;BME280;15377;48.540;9.268;2024-02-04T12:06:42;98422.78;;;12.53;100.00
5284;BME280;15377;48.540;9.268;2024-02-04T12:09:08;98420.81;;;12.35;100.00
5284;BME280;15377;48.540;9.268;2024-02-04T12:11:35;98402.88;;;12.49;100.00
5284;BME280;15377;48.540;9.268;2024-02-04T12:14:03;98407.44;;;12.43;100.00
5284;BME280;15377;48.540;9.268;2024-02-04T12:16:31;98398.25;;;12.55;100.00
5284;BME280;15377;48.540;9.268;2024-02-04T12:18:57;98394.25;;;12.38;100.00
5284;BME280;15377;48.540;9.268;2024-02-04T12:21:22;98393.94;;;12.36;100.00
5284;BME280;15377;48.540;9.268;2024-02-04T12:23:48;98401.28;;;12.03;100.00
5284;BME280;15377;48.540;9.268;2024-02-04T12:26:14;98378.63;;;12.26;100.00
5284;BME280;15377;48.540;9.268;2024-02-04T12:28:39;98364.34;;;12.18;100.00
5284;BME280;15377;48.540;9.268;2024-02-04T12:31:05;98367.56;;;12.35;100.00
5284;BME280;15377;48.540;9.268;2024-02-04T12:33:30;98365.28;;;12.33;100.00
5284;BME280;15377;48.540;9.268;2024-02-04T12:35:56;98363.13;;;12.46;100.00
5284;BME280;15377;48.540;9.268;2024-02-04T12:38:23;98363.88;;;12.65;100.00
5284;BME280;15377;48.540;9.268;2024-02-04T12:40:48;98358.53;;;12.61;100.00
5284;BME280;15377;48.540;9.268;2024-02-04T12:43:14;98345.97;;;12.51;100.00
5284;BME280;15377;48.540;9.268;2024-02-04T12:45:39;98350.72;;;12.42;100.00
5284;BME280;15377;48.540;9.268;2024-02-04T12:48:06;98361.44;;;12.49;100.00
5284;BME280;15377;48.540;9.268;2024-02-04T12:50:32;98359.44;;;12.40;100.00
5284;BME280;15377;48.540;9.268;2024-02-04T12:53:06;98361.75;;;12.42;100.00
5284;BME280;15377;48.540;9.268;2024-02-04T12:55:34;98357.78;;;12.25;100.00
5284;BME280;15377;48.540;9.268;2024-02-04T12:58:12;98372.94;;;12.38;100.00
5284;BME280;15377;48.540;9.268;2024-02-04T13:00:40;98358.38;;;12.38;100.00
5284;BME280;15377;48.540;9.268;2024-02-04T13:03:07;98375.84;;;12.44;100.00
5284;BME280;15377;48.540;9.268;2024-02-04T13:05:36;98370.03;;;12.51;100.00
5284;BME280;15377;48.540;9.268;2024-02-04T13:08:03;98355.16;;;12.48;100.00
5284;BME280;15377;48.540;9.268;2024-02-04T13:10:35;98339.34;;;12.31;100.00
5284;BME280;15377;48.540;9.268;2024-02-04T13:13:06;98342.88;;;12.40;100.00
5284;BME280;15377;48.540;9.268;2024-02-04T13:15:41;98334.59;;;12.49;100.00